sensor_id;sensor_type;location;lat;lon;timestamp;temperature;humidity
11925;DHT22;6022;48.768;18.608;2023-09-19T00:01:52;22.20;99.90
11925;DHT22;6022;48.768;18.608;2023-09-19T00:06:55;21.90;99.90
11925;DHT22;6022;48.768;18.608;2023-09-19T00:11:54;21.60;99.90
11925;DHT22;6022;48.768;18.608;2023-09-19T00:14:25;21.80;99.90
11925;DHT22;6022;48.768;18.608;2023-09-19T00:16:52;21.90;99.90
11925;DHT22;6022;48.768;18.608;2023-09-19T00:19:21;21.90;99.90
11925;DHT22;6022;48.768;18.608;2023-09-19T00:21:50;21.50;99.90
11925;DHT22;6022;48.768;18.608;2023-09-19T00:24:17;21.40;99.90
11925;DHT22;6022;48.768;18.608;2023-09-19T00:26:45;21.50;99.90
11925;DHT22;6022;48.768;18.608;2023-09-19T00:31:43;21.50;99.90
11925;DHT22;6022;48.768;18.608;2023-09-19T00:36:38;21.20;99.90
11925;DHT22;6022;48.768;18.608;2023-09-19T00:39:06;21.50;99.90
11925;DHT22;6022;48.768;18.608;2023-09-19T00:41:35;22.00;99.90
11925;DHT22;6022;48.768;18.608;2023-09-19T00:44:03;22.10;99.90
11925;DHT22;6022;48.768;18.608;2023-09-19T00:46:32;22.00;99.90
11925;DHT22;6022;48.768;18.608;2023-09-19T00:53:56;21.90;99.90
11925;DHT22;6022;48.768;18.608;2023-09-19T00:56:26;21.60;99.90
11925;DHT22;6022;48.768;18.608;2023-09-19T01:01:21;21.30;99.90
11925;DHT22;6022;48.768;18.608;2023-09-19T01:03:49;21.30;99.90
11925;DHT22;6022;48.768;18.608;2023-09-19T01:06:17;20.60;99.90
11925;DHT22;6022;48.768;18.608;2023-09-19T01:08:44;20.10;99.90
11925;DHT22;6022;48.768;18.608;2023-09-19T01:11:13;20.70;99.90
11925;DHT22;6022;48.768;18.608;2023-09-19T01:16:48;21.30;99.90
11925;DHT22;6022;48.768;18.608;2023-09-19T01:28:30;21.10;99.90
11925;DHT22;6022;48.768;18.608;2023-09-19T01:31:05;20.50;99.90
11925;DHT22;6022;48.768;18.608;2023-09-19T01:34:02;20.90;99.90
11925;DHT22;6022;48.768;18.608;2023-09-19T01:36:36;20.30;99.90
11925;DHT22;6022;48.768;18.608;2023-09-19T01:39:15;20.70;99.90
11925;DHT22;6022;48.768;18.608;2023-09-19T01:47:54;20.60;99.90
11925;DHT22;6022;48.768;18.608;2023-09-19T01:50:41;20.20;99.90
11925;DHT22;6022;48.768;18.608;2023-09-19T01:53:40;20.40;99.90
11925;DHT22;6022;48.768;18.608;2023-09-19T01:56:27;20.00;99.90
11925;DHT22;6022;48.768;18.608;2023-09-19T01:59:07;21.10;99.90
11925;DHT22;6022;48.768;18.608;2023-09-19T02:01:39;20.20;99.90
11925;DHT22;6022;48.768;18.608;2023-09-19T02:04:11;20.10;99.90
11925;DHT22;6022;48.768;18.608;2023-09-19T02:06:42;20.70;99.90
11925;DHT22;6022;48.768;18.608;2023-09-19T02:09:09;20.40;99.90
11925;DHT22;6022;48.768;18.608;2023-09-19T02:11:36;20.20;99.90
11925;DHT22;6022;48.768;18.608;2023-09-19T02:14:04;19.70;99.90
11925;DHT22;6022;48.768;18.608;2023-09-19T02:16:35;20.20;99.90
11925;DHT22;6022;48.768;18.608;2023-09-19T02:19:02;20.00;99.90
11925;DHT22;6022;48.768;18.608;2023-09-19T02:21:32;20.10;99.90
11925;DHT22;6022;48.768;18.608;2023-09-19T02:24:00;19.90;99.90
11925;DHT22;6022;48.768;18.608;2023-09-19T02:28:55;19.80;99.90
11925;DHT22;6022;48.768;18.608;2023-09-19T02:36:17;19.80;99.90
11925;DHT22;6022;48.768;18.608;2023-09-19T02:38:44;19.80;99.90
11925;DHT22;6022;48.768;18.608;2023-09-19T02:41:11;20.10;99.90
11925;DHT22;6022;48.768;18.608;2023-09-19T02:43:39;20.10;99.90
11925;DHT22;6022;48.768;18.608;2023-09-19T02:46:06;20.50;99.90
11925;DHT22;6022;48.768;18.608;2023-09-19T02:48:33;19.20;99.90
11925;DHT22;6022;48.768;18.608;2023-09-19T02:51:03;20.20;99.90
11925;DHT22;6022;48.768;18.608;2023-09-19T02:53:30;19.90;99.90
11925;DHT22;6022;48.768;18.608;2023-09-19T02:55:58;19.40;99.90
11925;DHT22;6022;48.768;18.608;2023-09-19T02:58:26;20.10;99.90
11925;DHT22;6022;48.768;18.608;2023-09-19T03:00:55;20.40;99.90
11925;DHT22;6022;48.768;18.608;2023-09-19T03:03:22;19.90;99.90
11925;DHT22;6022;48.768;18.608;2023-09-19T03:05:50;20.10;99.90
11925;DHT22;6022;48.768;18.608;2023-09-19T03:08:21;20.10;99.90
11925;DHT22;6022;48.768;18.608;2023-09-19T03:10:48;20.70;99.90
11925;DHT22;6022;48.768;18.608;2023-09-19T03:13:16;19.70;99.90
11925;DHT22;6022;48.768;18.608;2023-09-19T03:18:14;19.50;99.90
11925;DHT22;6022;48.768;18.608;2023-09-19T03:20:41;19.90;99.90
11925;DHT22;6022;48.768;18.608;2023-09-19T03:23:08;20.20;99.90
11925;DHT22;6022;48.768;18.608;2023-09-19T03:25:37;19.50;99.90
11925;DHT22;6022;48.768;18.608;2023-09-19T03:28:04;20.00;99.90
11925;DHT22;6022;48.768;18.608;2023-09-19T03:30:32;20.30;99.90
11925;DHT22;6022;48.768;18.608;2023-09-19T03:33:00;19.80;99.90
11925;DHT22;6022;48.768;18.608;2023-09-19T03:35:28;19.80;99.90
11925;DHT22;6022;48.768;18.608;2023-09-19T03:37:55;20.00;99.90
11925;DHT22;6022;48.768;18.608;2023-09-19T03:40:22;20.50;99.90
11925;DHT22;6022;48.768;18.608;2023-09-19T03:42:52;19.60;99.90
11925;DHT22;6022;48.768;18.608;2023-09-19T03:45:19;19.80;99.90
11925;DHT22;6022;48.768;18.608;2023-09-19T03:47:46;20.20;99.90
11925;DHT22;6022;48.768;18.608;2023-09-19T03:50:14;20.00;99.90
11925;DHT22;6022;48.768;18.608;2023-09-19T03:52:45;19.80;99.90
11925;DHT22;6022;48.768;18.608;2023-09-19T03:55:12;19.90;99.90
11925;DHT22;6022;48.768;18.608;2023-09-19T03:57:48;19.90;99.90
11925;DHT22;6022;48.768;18.608;2023-09-19T04:00:16;19.80;99.90
11925;DHT22;6022;48.768;18.608;2023-09-19T04:02:48;20.10;99.90
11925;DHT22;6022;48.768;18.608;2023-09-19T04:05:16;19.80;99.90
11925;DHT22;6022;48.768;18.608;2023-09-19T04:07:43;20.20;99.90
11925;DHT22;6022;48.768;18.608;2023-09-19T04:12:51;19.80;99.90
11925;DHT22;6022;48.768;18.608;2023-09-19T04:15:22;19.80;99.90
11925;DHT22;6022;48.768;18.608;2023-09-19T04:17:50;20.10;99.90
11925;DHT22;6022;48.768;18.608;2023-09-19T04:20:18;20.20;99.90
11925;DHT22;6022;48.768;18.608;2023-09-19T04:22:46;19.90;99.90
11925;DHT22;6022;48.768;18.608;2023-09-19T04:25:14;19.30;99.90
11925;DHT22;6022;48.768;18.608;2023-09-19T04:35:10;19.80;99.90
11925;DHT22;6022;48.768;18.608;2023-09-19T04:37:42;19.30;99.90
11925;DHT22;6022;48.768;18.608;2023-09-19T04:40:10;19.90;99.90
11925;DHT22;6022;48.768;18.608;2023-09-19T04:42:53;20.20;99.90
11925;DHT22;6022;48.768;18.608;2023-09-19T04:45:24;19.90;99.90
11925;DHT22;6022;48.768;18.608;2023-09-19T04:47:53;19.90;99.90
11925;DHT22;6022;48.768;18.608;2023-09-19T04:50:21;19.80;99.90
11925;DHT22;6022;48.768;18.608;2023-09-19T04:52:50;19.50;99.90
11925;DHT22;6022;48.768;18.608;2023-09-19T04:55:18;19.90;99.90
11925;DHT22;6022;48.768;18.608;2023-09-19T04:57:47;19.20;99.90
11925;DHT22;6022;48.768;18.608;2023-09-19T05:00:16;19.60;99.90
11925;DHT22;6022;48.768;18.608;2023-09-19T05:02:52;20.00;99.90
11925;DHT22;6022;48.768;18.608;2023-09-19T05:05:22;19.40;99.90
11925;DHT22;6022;48.768;18.608;2023-09-19T05:07:50;19.20;99.90
11925;DHT22;6022;48.768;18.608;2023-09-19T05:12:49;19.50;99.90
11925;DHT22;6022;48.768;18.608;2023-09-19T05:17:49;19.90;99.90
11925;DHT22;6022;48.768;18.608;2023-09-19T05:20:22;19.00;99.90
11925;DHT22;6022;48.768;18.608;2023-09-19T05:23:06;19.10;99.90
11925;DHT22;6022;48.768;18.608;2023-09-19T05:25:39;18.30;99.90
11925;DHT22;6022;48.768;18.608;2023-09-19T05:28:10;18.90;99.90
11925;DHT22;6022;48.768;18.608;2023-09-19T05:30:42;19.70;99.90
11925;DHT22;6022;48.768;18.608;2023-09-19T05:38:10;18.50;99.90
11925;DHT22;6022;48.768;18.608;2023-09-19T05:40:41;19.00;99.90
11925;DHT22;6022;48.768;18.608;2023-09-19T05:43:09;19.50;99.90
11925;DHT22;6022;48.768;18.608;2023-09-19T05:45:37;18.90;99.90
11925;DHT22;6022;48.768;18.608;2023-09-19T05:48:14;18.90;99.90
11925;DHT22;6022;48.768;18.608;2023-09-19T05:50:43;18.90;99.90
11925;DHT22;6022;48.768;18.608;2023-09-19T05:53:16;19.00;99.90
11925;DHT22;6022;48.768;18.608;2023-09-19T05:55:44;18.60;99.90
11925;DHT22;6022;48.768;18.608;2023-09-19T05:58:12;18.30;99.90
11925;DHT22;6022;48.768;18.608;2023-09-19T06:00:41;18.90;99.90
11925;DHT22;6022;48.768;18.608;2023-09-19T06:15:55;19.10;99.90
11925;DHT22;6022;48.768;18.608;2023-09-19T06:18:29;18.70;99.90
11925;DHT22;6022;48.768;18.608;2023-09-19T06:23:35;18.60;99.90
11925;DHT22;6022;48.768;18.608;2023-09-19T06:26:02;18.20;99.90
11925;DHT22;6022;48.768;18.608;2023-09-19T06:28:33;18.40;99.90
11925;DHT22;6022;48.768;18.608;2023-09-19T06:31:02;18.50;99.90
11925;DHT22;6022;48.768;18.608;2023-09-19T06:33:53;18.60;99.90
11925;DHT22;6022;48.768;18.608;2023-09-19T06:36:20;18.60;99.90
11925;DHT22;6022;48.768;18.608;2023-09-19T06:38:54;18.70;99.90
11925;DHT22;6022;48.768;18.608;2023-09-19T06:43:52;18.70;99.90
11925;DHT22;6022;48.768;18.608;2023-09-19T06:46:22;18.80;99.90
11925;DHT22;6022;48.768;18.608;2023-09-19T06:51:20;18.30;99.90
11925;DHT22;6022;48.768;18.608;2023-09-19T06:53:48;17.80;99.90
11925;DHT22;6022;48.768;18.608;2023-09-19T06:56:15;18.50;99.90
11925;DHT22;6022;48.768;18.608;2023-09-19T06:59:00;18.90;99.90
11925;DHT22;6022;48.768;18.608;2023-09-19T07:01:29;18.20;99.90
11925;DHT22;6022;48.768;18.608;2023-09-19T07:03:58;18.40;99.90
11925;DHT22;6022;48.768;18.608;2023-09-19T07:06:27;18.30;99.90
11925;DHT22;6022;48.768;18.608;2023-09-19T07:08:54;18.00;99.90
11925;DHT22;6022;48.768;18.608;2023-09-19T07:11:22;18.50;99.90
11925;DHT22;6022;48.768;18.608;2023-09-19T07:13:50;18.50;99.90
11925;DHT22;6022;48.768;18.608;2023-09-19T07:16:17;18.20;99.90
11925;DHT22;6022;48.768;18.608;2023-09-19T07:18:55;18.60;99.90
11925;DHT22;6022;48.768;18.608;2023-09-19T07:21:23;18.70;99.90
11925;DHT22;6022;48.768;18.608;2023-09-19T07:26:21;18.70;99.90
11925;DHT22;6022;48.768;18.608;2023-09-19T07:28:48;18.90;99.90
11925;DHT22;6022;48.768;18.608;2023-09-19T07:31:15;17.60;99.90
11925;DHT22;6022;48.768;18.608;2023-09-19T07:33:44;18.50;99.90
11925;DHT22;6022;48.768;18.608;2023-09-19T07:36:11;18.30;99.90
11925;DHT22;6022;48.768;18.608;2023-09-19T07:38:40;18.60;99.90
11925;DHT22;6022;48.768;18.608;2023-09-19T07:41:11;18.30;99.90
11925;DHT22;6022;48.768;18.608;2023-09-19T07:43:38;18.00;99.90
11925;DHT22;6022;48.768;18.608;2023-09-19T07:46:10;18.20;99.90
11925;DHT22;6022;48.768;18.608;2023-09-19T07:51:08;19.10;99.90
11925;DHT22;6022;48.768;18.608;2023-09-19T07:56:08;18.70;99.90
11925;DHT22;6022;48.768;18.608;2023-09-19T07:58:39;18.70;99.90
11925;DHT22;6022;48.768;18.608;2023-09-19T08:01:10;18.70;99.90
11925;DHT22;6022;48.768;18.608;2023-09-19T08:03:39;18.80;99.90
11925;DHT22;6022;48.768;18.608;2023-09-19T08:11:05;18.80;99.90
11925;DHT22;6022;48.768;18.608;2023-09-19T08:13:41;19.10;99.90
11925;DHT22;6022;48.768;18.608;2023-09-19T08:16:14;19.00;99.90
11925;DHT22;6022;48.768;18.608;2023-09-19T08:18:42;18.80;99.90
11925;DHT22;6022;48.768;18.608;2023-09-19T08:21:11;18.80;99.90
11925;DHT22;6022;48.768;18.608;2023-09-19T08:23:42;19.00;99.90
11925;DHT22;6022;48.768;18.608;2023-09-19T08:26:10;19.40;99.90
11925;DHT22;6022;48.768;18.608;2023-09-19T08:28:37;20.10;99.90
11925;DHT22;6022;48.768;18.608;2023-09-19T08:31:08;20.10;99.90
11925;DHT22;6022;48.768;18.608;2023-09-19T08:33:37;19.50;99.90
11925;DHT22;6022;48.768;18.608;2023-09-19T08:36:06;19.00;99.90
11925;DHT22;6022;48.768;18.608;2023-09-19T08:38:35;19.40;99.90
11925;DHT22;6022;48.768;18.608;2023-09-19T08:41:08;19.20;99.90
11925;DHT22;6022;48.768;18.608;2023-09-19T08:43:38;19.40;99.90
11925;DHT22;6022;48.768;18.608;2023-09-19T08:48:57;19.10;99.90
11925;DHT22;6022;48.768;18.608;2023-09-19T08:51:42;19.20;99.90
11925;DHT22;6022;48.768;18.608;2023-09-19T08:54:28;19.20;99.90
11925;DHT22;6022;48.768;18.608;2023-09-19T08:57:02;19.90;99.90
11925;DHT22;6022;48.768;18.608;2023-09-19T08:59:38;19.60;99.90
11925;DHT22;6022;48.768;18.608;2023-09-19T09:02:12;19.60;99.90
11925;DHT22;6022;48.768;18.608;2023-09-19T09:04:43;19.70;99.90
11925;DHT22;6022;48.768;18.608;2023-09-19T09:07:12;20.10;99.90
11925;DHT22;6022;48.768;18.608;2023-09-19T09:09:40;19.60;99.90
11925;DHT22;6022;48.768;18.608;2023-09-19T09:12:14;20.00;99.90
11925;DHT22;6022;48.768;18.608;2023-09-19T09:14:46;19.80;99.90
11925;DHT22;6022;48.768;18.608;2023-09-19T09:17:17;20.10;99.90
11925;DHT22;6022;48.768;18.608;2023-09-19T09:19:47;19.90;99.90
11925;DHT22;6022;48.768;18.608;2023-09-19T09:22:15;20.30;99.90
11925;DHT22;6022;48.768;18.608;2023-09-19T09:27:21;20.40;99.90
11925;DHT22;6022;48.768;18.608;2023-09-19T09:29:53;21.10;99.90
11925;DHT22;6022;48.768;18.608;2023-09-19T09:32:27;20.90;99.90
11925;DHT22;6022;48.768;18.608;2023-09-19T09:35:00;21.20;99.90
11925;DHT22;6022;48.768;18.608;2023-09-19T09:37:28;22.60;99.90
11925;DHT22;6022;48.768;18.608;2023-09-19T09:39:59;23.70;99.90
11925;DHT22;6022;48.768;18.608;2023-09-19T09:45:18;24.80;99.90
11925;DHT22;6022;48.768;18.608;2023-09-19T09:48:00;25.50;99.90
11925;DHT22;6022;48.768;18.608;2023-09-19T09:50:33;25.20;99.90
11925;DHT22;6022;48.768;18.608;2023-09-19T09:56:06;25.70;99.90
11925;DHT22;6022;48.768;18.608;2023-09-19T09:58:37;25.90;99.90
11925;DHT22;6022;48.768;18.608;2023-09-19T10:01:16;25.50;99.90
11925;DHT22;6022;48.768;18.608;2023-09-19T10:03:45;25.60;99.90
11925;DHT22;6022;48.768;18.608;2023-09-19T10:06:17;25.40;99.90
11925;DHT22;6022;48.768;18.608;2023-09-19T10:09:04;25.30;99.90
11925;DHT22;6022;48.768;18.608;2023-09-19T10:11:47;24.70;99.90
11925;DHT22;6022;48.768;18.608;2023-09-19T10:14:27;24.60;99.90
11925;DHT22;6022;48.768;18.608;2023-09-19T10:17:00;24.40;99.90
11925;DHT22;6022;48.768;18.608;2023-09-19T10:19:44;24.10;99.90
11925;DHT22;6022;48.768;18.608;2023-09-19T10:24:53;23.50;99.90
11925;DHT22;6022;48.768;18.608;2023-09-19T10:30:07;23.60;99.90
11925;DHT22;6022;48.768;18.608;2023-09-19T10:32:40;23.30;99.90
11925;DHT22;6022;48.768;18.608;2023-09-19T10:37:47;23.60;99.90
11925;DHT22;6022;48.768;18.608;2023-09-19T10:40:19;24.90;99.90
11925;DHT22;6022;48.768;18.608;2023-09-19T10:42:48;25.70;99.90
11925;DHT22;6022;48.768;18.608;2023-09-19T10:47:52;26.20;99.90
11925;DHT22;6022;48.768;18.608;2023-09-19T10:50:20;26.00;99.90
11925;DHT22;6022;48.768;18.608;2023-09-19T10:52:52;26.50;99.90
11925;DHT22;6022;48.768;18.608;2023-09-19T10:55:27;26.30;99.90
11925;DHT22;6022;48.768;18.608;2023-09-19T11:00:57;25.20;99.90
11925;DHT22;6022;48.768;18.608;2023-09-19T11:03:39;24.90;99.90
11925;DHT22;6022;48.768;18.608;2023-09-19T11:06:13;24.70;99.90
11925;DHT22;6022;48.768;18.608;2023-09-19T11:08:58;24.60;99.90
11925;DHT22;6022;48.768;18.608;2023-09-19T11:36:17;24.40;99.90
11925;DHT22;6022;48.768;18.608;2023-09-19T11:46:54;24.60;99.90
11925;DHT22;6022;48.768;18.608;2023-09-19T11:49:28;24.20;99.90
11925;DHT22;6022;48.768;18.608;2023-09-19T11:52:00;24.30;99.90
11925;DHT22;6022;48.768;18.608;2023-09-19T11:54:28;24.40;99.90
11925;DHT22;6022;48.768;18.608;2023-09-19T11:56:59;24.00;99.90
11925;DHT22;6022;48.768;18.608;2023-09-19T11:59:28;24.10;99.90
11925;DHT22;6022;48.768;18.608;2023-09-19T12:02:01;23.20;99.90
11925;DHT22;6022;48.768;18.608;2023-09-19T12:04:41;23.20;99.90
11925;DHT22;6022;48.768;18.608;2023-09-19T12:07:14;23.60;99.90
11925;DHT22;6022;48.768;18.608;2023-09-19T12:09:48;23.20;99.90
11925;DHT22;6022;48.768;18.608;2023-09-19T12:12:25;23.20;99.90
11925;DHT22;6022;48.768;18.608;2023-09-19T12:15:03;23.00;99.90
11925;DHT22;6022;48.768;18.608;2023-09-19T12:17:37;23.10;99.90
11925;DHT22;6022;48.768;18.608;2023-09-19T12:20:06;23.30;99.90
11925;DHT22;6022;48.768;18.608;2023-09-19T12:22:44;22.60;99.90
11925;DHT22;6022;48.768;18.608;2023-09-19T12:27:45;22.90;99.90
11925;DHT22;6022;48.768;18.608;2023-09-19T12:30:14;22.70;99.90
11925;DHT22;6022;48.768;18.608;2023-09-19T12:32:47;22.90;99.90
11925;DHT22;6022;48.768;18.608;2023-09-19T12:35:37;22.50;99.90
11925;DHT22;6022;48.768;18.608;2023-09-19T12:43:05;22.90;99.90
11925;DHT22;6022;48.768;18.608;2023-09-19T12:45:34;23.10;99.90
11925;DHT22;6022;48.768;18.608;2023-09-19T12:53:37;23.50;99.90
11925;DHT22;6022;48.768;18.608;2023-09-19T12:56:14;23.60;99.90
11925;DHT22;6022;48.768;18.608;2023-09-19T12:58:53;24.00;99.90
11925;DHT22;6022;48.768;18.608;2023-09-19T13:01:23;24.10;99.90
11925;DHT22;6022;48.768;18.608;2023-09-19T13:04:18;24.10;99.90
11925;DHT22;6022;48.768;18.608;2023-09-19T13:06:50;23.90;99.90
11925;DHT22;6022;48.768;18.608;2023-09-19T13:09:20;24.20;99.90
11925;DHT22;6022;48.768;18.608;2023-09-19T13:11:48;23.80;99.90
11925;DHT22;6022;48.768;18.608;2023-09-19T13:17:07;24.00;99.90
11925;DHT22;6022;48.768;18.608;2023-09-19T13:19:48;24.30;99.90
11925;DHT22;6022;48.768;18.608;2023-09-19T13:22:41;24.00;99.90
11925;DHT22;6022;48.768;18.608;2023-09-19T13:25:18;24.70;99.90
11925;DHT22;6022;48.768;18.608;2023-09-19T13:27:49;24.10;99.90
11925;DHT22;6022;48.768;18.608;2023-09-19T13:30:28;23.70;99.90
11925;DHT22;6022;48.768;18.608;2023-09-19T13:33:05;24.30;99.90
11925;DHT22;6022;48.768;18.608;2023-09-19T13:35:34;24.00;99.90
11925;DHT22;6022;48.768;18.608;2023-09-19T13:40:29;24.80;99.90
11925;DHT22;6022;48.768;18.608;2023-09-19T13:43:02;23.60;99.90
11925;DHT22;6022;48.768;18.608;2023-09-19T13:47:57;23.70;99.90
11925;DHT22;6022;48.768;18.608;2023-09-19T13:55:25;24.00;99.90
11925;DHT22;6022;48.768;18.608;2023-09-19T14:00:24;23.90;99.90
11925;DHT22;6022;48.768;18.608;2023-09-19T14:07:48;23.30;99.90
11925;DHT22;6022;48.768;18.608;2023-09-19T14:12:45;24.00;99.90
11925;DHT22;6022;48.768;18.608;2023-09-19T14:25:10;24.00;99.90
11925;DHT22;6022;48.768;18.608;2023-09-19T14:27:37;23.20;99.90
11925;DHT22;6022;48.768;18.608;2023-09-19T14:30:06;22.60;99.90
11925;DHT22;6022;48.768;18.608;2023-09-19T14:35:03;23.20;99.90
11925;DHT22;6022;48.768;18.608;2023-09-19T14:37:30;23.10;99.90
11925;DHT22;6022;48.768;18.608;2023-09-19T14:42:25;22.50;99.90
11925;DHT22;6022;48.768;18.608;2023-09-19T14:47:23;22.70;99.90
11925;DHT22;6022;48.768;18.608;2023-09-19T14:59:41;22.60;99.90
11925;DHT22;6022;48.768;18.608;2023-09-19T15:02:09;22.40;99.90
11925;DHT22;6022;48.768;18.608;2023-09-19T15:09:35;22.50;99.90
11925;DHT22;6022;48.768;18.608;2023-09-19T15:12:03;22.00;99.90
11925;DHT22;6022;48.768;18.608;2023-09-19T15:21:53;22.30;99.90
11925;DHT22;6022;48.768;18.608;2023-09-19T15:29:22;22.30;99.90
11925;DHT22;6022;48.768;18.608;2023-09-19T15:34:27;22.20;99.90
11925;DHT22;6022;48.768;18.608;2023-09-19T15:41:51;22.20;99.90
11925;DHT22;6022;48.768;18.608;2023-09-19T15:46:55;22.10;99.90
11925;DHT22;6022;48.768;18.608;2023-09-19T15:52:00;21.60;99.90
11925;DHT22;6022;48.768;18.608;2023-09-19T15:54:28;21.40;99.90
11925;DHT22;6022;48.768;18.608;2023-09-19T15:57:05;21.80;99.90
11925;DHT22;6022;48.768;18.608;2023-09-19T15:59:35;21.80;99.90
11925;DHT22;6022;48.768;18.608;2023-09-19T16:02:02;21.50;99.90
11925;DHT22;6022;48.768;18.608;2023-09-19T16:04:32;21.60;99.90
11925;DHT22;6022;48.768;18.608;2023-09-19T16:07:00;20.90;99.90
11925;DHT22;6022;48.768;18.608;2023-09-19T16:14:25;21.50;99.90
11925;DHT22;6022;48.768;18.608;2023-09-19T16:19:24;20.70;99.90
11925;DHT22;6022;48.768;18.608;2023-09-19T16:21:52;21.30;99.90
11925;DHT22;6022;48.768;18.608;2023-09-19T16:24:19;20.70;99.90
11925;DHT22;6022;48.768;18.608;2023-09-19T16:29:19;20.90;99.90
11925;DHT22;6022;48.768;18.608;2023-09-19T16:34:19;20.90;99.90
11925;DHT22;6022;48.768;18.608;2023-09-19T16:36:46;20.50;99.90
11925;DHT22;6022;48.768;18.608;2023-09-19T16:39:14;20.30;99.90
11925;DHT22;6022;48.768;18.608;2023-09-19T16:49:08;20.10;99.90
11925;DHT22;6022;48.768;18.608;2023-09-19T16:56:32;20.40;99.90
11925;DHT22;6022;48.768;18.608;2023-09-19T16:59:05;21.20;99.90
11925;DHT22;6022;48.768;18.608;2023-09-19T17:04:03;20.60;99.90
11925;DHT22;6022;48.768;18.608;2023-09-19T17:06:31;20.50;99.90
11925;DHT22;6022;48.768;18.608;2023-09-19T17:08:58;19.50;99.90
11925;DHT22;6022;48.768;18.608;2023-09-19T17:11:26;20.10;99.90
11925;DHT22;6022;48.768;18.608;2023-09-19T17:13:54;19.50;99.90
11925;DHT22;6022;48.768;18.608;2023-09-19T17:16:24;20.30;99.90
11925;DHT22;6022;48.768;18.608;2023-09-19T17:18:56;20.10;99.90
11925;DHT22;6022;48.768;18.608;2023-09-19T17:21:25;19.90;99.90
11925;DHT22;6022;48.768;18.608;2023-09-19T17:26:22;19.30;99.90
11925;DHT22;6022;48.768;18.608;2023-09-19T17:28:52;19.80;99.90
11925;DHT22;6022;48.768;18.608;2023-09-19T17:31:22;19.80;99.90
11925;DHT22;6022;48.768;18.608;2023-09-19T17:36:21;19.60;99.90
11925;DHT22;6022;48.768;18.608;2023-09-19T17:38:55;19.60;99.90
11925;DHT22;6022;48.768;18.608;2023-09-19T17:44:00;19.80;99.90
11925;DHT22;6022;48.768;18.608;2023-09-19T17:48:57;18.90;99.90
11925;DHT22;6022;48.768;18.608;2023-09-19T17:53:55;19.50;99.90
11925;DHT22;6022;48.768;18.608;2023-09-19T17:56:28;19.30;99.90
11925;DHT22;6022;48.768;18.608;2023-09-19T17:58:57;19.30;99.90
11925;DHT22;6022;48.768;18.608;2023-09-19T18:01:30;19.30;99.90
11925;DHT22;6022;48.768;18.608;2023-09-19T18:06:30;18.90;99.90
11925;DHT22;6022;48.768;18.608;2023-09-19T18:09:00;19.20;99.90
11925;DHT22;6022;48.768;18.608;2023-09-19T18:16:26;18.30;99.90
11925;DHT22;6022;48.768;18.608;2023-09-19T18:19:01;18.90;99.90
11925;DHT22;6022;48.768;18.608;2023-09-19T18:21:32;19.20;99.90
11925;DHT22;6022;48.768;18.608;2023-09-19T18:24:00;18.70;99.90
11925;DHT22;6022;48.768;18.608;2023-09-19T18:26:32;18.70;99.90
11925;DHT22;6022;48.768;18.608;2023-09-19T18:36:36;18.60;99.90
11925;DHT22;6022;48.768;18.608;2023-09-19T18:39:04;18.60;99.90
11925;DHT22;6022;48.768;18.608;2023-09-19T18:41:31;17.30;99.90
11925;DHT22;6022;48.768;18.608;2023-09-19T18:54:09;18.40;99.90
11925;DHT22;6022;48.768;18.608;2023-09-19T18:56:40;18.10;99.90
11925;DHT22;6022;48.768;18.608;2023-09-19T19:11:39;18.70;99.90
11925;DHT22;6022;48.768;18.608;2023-09-19T19:16:36;18.20;99.90
11925;DHT22;6022;48.768;18.608;2023-09-19T19:21:38;18.00;99.90
11925;DHT22;6022;48.768;18.608;2023-09-19T19:24:05;18.10;99.90
11925;DHT22;6022;48.768;18.608;2023-09-19T19:26:33;18.50;99.90
11925;DHT22;6022;48.768;18.608;2023-09-19T19:29:00;18.60;99.90
11925;DHT22;6022;48.768;18.608;2023-09-19T19:39:03;17.00;99.90
11925;DHT22;6022;48.768;18.608;2023-09-19T19:41:34;17.30;99.90
11925;DHT22;6022;48.768;18.608;2023-09-19T19:46:38;17.10;99.90
11925;DHT22;6022;48.768;18.608;2023-09-19T19:51:34;16.80;99.90
11925;DHT22;6022;48.768;18.608;2023-09-19T19:56:36;17.00;99.90
11925;DHT22;6022;48.768;18.608;2023-09-19T19:59:09;17.10;99.90
11925;DHT22;6022;48.768;18.608;2023-09-19T20:01:36;16.30;99.90
11925;DHT22;6022;48.768;18.608;2023-09-19T20:06:32;16.50;99.90
11925;DHT22;6022;48.768;18.608;2023-09-19T20:08:59;16.60;99.90
11925;DHT22;6022;48.768;18.608;2023-09-19T20:11:28;16.70;99.90
11925;DHT22;6022;48.768;18.608;2023-09-19T20:18:59;16.60;99.90
11925;DHT22;6022;48.768;18.608;2023-09-19T20:23:58;16.40;99.90
11925;DHT22;6022;48.768;18.608;2023-09-19T20:26:36;16.70;99.90
11925;DHT22;6022;48.768;18.608;2023-09-19T20:29:07;16.80;99.90
11925;DHT22;6022;48.768;18.608;2023-09-19T20:31:36;16.30;99.90
11925;DHT22;6022;48.768;18.608;2023-09-19T20:41:37;16.60;99.90
11925;DHT22;6022;48.768;18.608;2023-09-19T20:58:58;16.50;99.90
11925;DHT22;6022;48.768;18.608;2023-09-19T21:06:37;16.20;99.90
11925;DHT22;6022;48.768;18.608;2023-09-19T21:14:01;16.60;99.90
11925;DHT22;6022;48.768;18.608;2023-09-19T21:16:31;15.70;99.90
11925;DHT22;6022;48.768;18.608;2023-09-19T21:28:56;15.50;99.90
11925;DHT22;6022;48.768;18.608;2023-09-19T21:33:51;16.60;99.90
11925;DHT22;6022;48.768;18.608;2023-09-19T21:36:19;16.90;99.90
11925;DHT22;6022;48.768;18.608;2023-09-19T21:41:18;16.20;99.90
11925;DHT22;6022;48.768;18.608;2023-09-19T21:43:47;16.30;99.90
11925;DHT22;6022;48.768;18.608;2023-09-19T21:46:19;16.30;99.90
11925;DHT22;6022;48.768;18.608;2023-09-19T21:48:47;16.80;99.90
11925;DHT22;6022;48.768;18.608;2023-09-19T21:56:12;16.70;99.90
11925;DHT22;6022;48.768;18.608;2023-09-19T21:58:42;16.70;99.90
11925;DHT22;6022;48.768;18.608;2023-09-19T22:01:12;16.30;99.90
11925;DHT22;6022;48.768;18.608;2023-09-19T22:03:41;16.50;99.90
11925;DHT22;6022;48.768;18.608;2023-09-19T22:06:10;16.10;99.90
11925;DHT22;6022;48.768;18.608;2023-09-19T22:11:09;15.80;99.90
11925;DHT22;6022;48.768;18.608;2023-09-19T22:13:38;16.80;99.90
11925;DHT22;6022;48.768;18.608;2023-09-19T22:16:11;16.20;99.90
11925;DHT22;6022;48.768;18.608;2023-09-19T22:18:43;16.30;99.90
11925;DHT22;6022;48.768;18.608;2023-09-19T22:21:15;15.30;99.90
11925;DHT22;6022;48.768;18.608;2023-09-19T22:26:21;16.10;99.90
11925;DHT22;6022;48.768;18.608;2023-09-19T22:28:51;16.20;99.90
11925;DHT22;6022;48.768;18.608;2023-09-19T22:31:24;16.80;99.90
11925;DHT22;6022;48.768;18.608;2023-09-19T22:36:26;16.10;99.90
11925;DHT22;6022;48.768;18.608;2023-09-19T22:39:06;17.00;99.90
11925;DHT22;6022;48.768;18.608;2023-09-19T22:41:52;16.00;99.90
11925;DHT22;6022;48.768;18.608;2023-09-19T22:44:20;16.00;99.90
11925;DHT22;6022;48.768;18.608;2023-09-19T22:46:53;16.80;99.90
11925;DHT22;6022;48.768;18.608;2023-09-19T22:51:48;16.40;99.90